createdAt,value
2019-01-06T00:00:27.291Z,99101.41
2019-01-06T00:00:58.447Z,99110.75
2019-01-06T00:01:29.609Z,99109.08
2019-01-06T00:02:00.763Z,99108.17
2019-01-06T00:02:31.930Z,99110.75
2019-01-06T00:03:03.087Z,99106.45
2019-01-06T00:03:34.249Z,99103.03
2019-01-06T00:04:05.402Z,99105.58
2019-01-06T00:04:36.552Z,99103.78
2019-01-06T00:05:07.752Z,99111.42
2019-01-06T00:05:38.902Z,99108.03
2019-01-06T00:06:10.049Z,99111.39
2019-01-06T00:06:41.208Z,99108.83
2019-01-06T00:07:12.344Z,99109.20
2019-01-06T00:07:43.487Z,99104.80
2019-01-06T00:08:15.954Z,99106.92
2019-01-06T00:08:47.163Z,99105.67
2019-01-06T00:09:18.335Z,99109.89
2019-01-06T00:09:49.495Z,99102.70
2019-01-06T00:10:20.636Z,99100.92
2019-01-06T00:10:51.800Z,99102.67
2019-01-06T00:11:22.946Z,99104.38
2019-01-06T00:11:54.135Z,99098.84
2019-01-06T00:12:25.309Z,99101.83
2019-01-06T00:12:56.501Z,99100.98
2019-01-06T00:13:27.656Z,99098.41
2019-01-06T00:13:58.810Z,99102.56
2019-01-06T00:14:29.971Z,99098.41
2019-01-06T00:15:01.124Z,99098.38
2019-01-06T00:15:32.282Z,99104.75
2019-01-06T00:16:03.477Z,99100.11
2019-01-06T00:16:34.628Z,99097.11
2019-01-06T00:17:05.779Z,99098.30
2019-01-06T00:17:36.943Z,99089.84
2019-01-06T00:18:08.100Z,99095.75
2019-01-06T00:18:39.253Z,99090.27
2019-01-06T00:19:10.400Z,99098.27
2019-01-06T00:19:41.551Z,99092.80
2019-01-06T00:20:12.702Z,99088.09
2019-01-06T00:20:43.849Z,99090.25
2019-01-06T00:21:15.049Z,99092.84
2019-01-06T00:21:46.201Z,99092.45
2019-01-06T00:22:17.355Z,99088.66
2019-01-06T00:22:48.513Z,99083.56
2019-01-06T00:23:19.720Z,99089.95
2019-01-06T00:23:50.894Z,99089.10
2019-01-06T00:24:23.244Z,99087.41
2019-01-06T00:24:54.371Z,99090.41
2019-01-06T00:25:25.522Z,99099.41
2019-01-06T00:25:56.672Z,99092.59
2019-01-06T00:26:27.827Z,99096.02
2019-01-06T00:26:58.980Z,99097.34
2019-01-06T00:27:30.130Z,99094.80
2019-01-06T00:28:01.276Z,99096.09
2019-01-06T00:28:32.483Z,99091.34
2019-01-06T00:29:03.634Z,99085.91
2019-01-06T00:29:34.824Z,99093.55
2019-01-06T00:30:05.964Z,99089.73
2019-01-06T00:30:37.123Z,99091.87
2019-01-06T00:31:08.260Z,99089.33
2019-01-06T00:31:39.414Z,99092.41
2019-01-06T00:32:10.647Z,99086.02
2019-01-06T00:32:41.803Z,99083.02
2019-01-06T00:33:12.954Z,99087.77
2019-01-06T00:33:44.145Z,99086.91
2019-01-06T00:34:15.296Z,99083.14
2019-01-06T00:34:46.448Z,99082.67
2019-01-06T00:35:17.605Z,99084.36
2019-01-06T00:35:48.754Z,99080.13
2019-01-06T00:36:19.913Z,99083.98
2019-01-06T00:36:51.143Z,99087.03
2019-01-06T00:37:22.274Z,99090.05
2019-01-06T00:37:53.459Z,99093.87
2019-01-06T00:38:24.616Z,99085.38
2019-01-06T00:38:55.769Z,99093.05
2019-01-06T00:39:26.975Z,99087.93
2019-01-06T00:39:58.132Z,99084.58
2019-01-06T00:40:29.286Z,99084.61
2019-01-06T00:41:00.438Z,99080.78
2019-01-06T00:41:32.958Z,99083.78
2019-01-06T00:42:06.767Z,99082.95
2019-01-06T00:42:37.956Z,99077.88
2019-01-06T00:43:09.159Z,99080.51
2019-01-06T00:43:40.361Z,99083.90
2019-01-06T00:44:11.532Z,98714.25
2019-01-06T00:44:42.680Z,99085.25
2019-01-06T00:45:13.880Z,99078.48
2019-01-06T00:45:45.025Z,99079.36
2019-01-06T00:46:16.181Z,99081.02
2019-01-06T00:46:47.333Z,99079.28
2019-01-06T00:47:18.489Z,99079.30
2019-01-06T00:47:49.643Z,99081.02
2019-01-06T00:48:20.795Z,99084.00
2019-01-06T00:48:51.945Z,99075.06
2019-01-06T00:49:23.112Z,99078.88
2019-01-06T00:49:54.266Z,99075.06
2019-01-06T00:50:25.461Z,99075.88
2019-01-06T00:50:56.616Z,99071.66
2019-01-06T00:51:27.771Z,99075.69
2019-01-06T00:51:58.980Z,99072.44
2019-01-06T00:52:30.140Z,99068.97
2019-01-06T00:53:01.297Z,99065.52
2019-01-06T00:53:32.460Z,99064.66
2019-01-06T00:54:03.626Z,99063.78
2019-01-06T00:54:34.787Z,99056.13
2019-01-06T00:55:05.942Z,99059.56
2019-01-06T00:55:37.149Z,99059.20
2019-01-06T00:56:08.361Z,99059.23
2019-01-06T00:56:39.509Z,99060.16
2019-01-06T00:57:10.661Z,99055.63
2019-01-06T00:57:41.806Z,99054.91
2019-01-06T00:58:12.977Z,99046.83
2019-01-06T00:58:44.129Z,99048.47
2019-01-06T00:59:15.286Z,99045.47
2019-01-06T00:59:51.177Z,98866.08
2019-01-06T01:00:27.489Z,99045.30
2019-01-06T01:01:00.744Z,99046.19
2019-01-06T01:01:33.916Z,99039.08
2019-01-06T01:02:06.245Z,99037.12
2019-01-06T01:02:38.586Z,99038.14
2019-01-06T01:03:09.843Z,99038.95
2019-01-06T01:03:41.046Z,99033.83
2019-01-06T01:04:12.263Z,99038.03
2019-01-06T01:04:43.408Z,99041.88
2019-01-06T01:05:14.577Z,99033.37
2019-01-06T01:05:45.719Z,99037.09
2019-01-06T01:06:16.879Z,99033.61
2019-01-06T01:06:48.086Z,99029.24
2019-01-06T01:07:19.246Z,99028.80
2019-01-06T01:07:50.401Z,99032.26
2019-01-06T01:08:21.581Z,99028.45
2019-01-06T01:08:52.753Z,99030.63
2019-01-06T01:09:23.910Z,99027.72
2019-01-06T01:09:55.068Z,99032.11
2019-01-06T01:10:26.221Z,99026.19
2019-01-06T01:10:57.390Z,99025.26
2019-01-06T01:11:28.615Z,99021.38
2019-01-06T01:11:59.820Z,99004.66
2019-01-06T01:12:30.969Z,99023.52
2019-01-06T01:13:02.111Z,99026.02
2019-01-06T01:13:33.264Z,99023.45
2019-01-06T01:14:04.434Z,99017.45
2019-01-06T01:14:35.591Z,99019.95
2019-01-06T01:15:06.744Z,99023.32
2019-01-06T01:15:37.900Z,99018.67
2019-01-06T01:16:09.057Z,99017.31
2019-01-06T01:16:40.214Z,99015.50
2019-01-06T01:17:11.495Z,99016.83
2019-01-06T01:17:42.703Z,99013.40
2019-01-06T01:18:13.862Z,99011.66
2019-01-06T01:18:45.013Z,99015.50
2019-01-06T01:19:16.179Z,99011.67
2019-01-06T01:19:47.331Z,99013.73
2019-01-06T01:20:18.487Z,99006.92
2019-01-06T01:20:49.632Z,99006.53
2019-01-06T01:21:20.776Z,99010.36
2019-01-06T01:21:51.961Z,99008.72
2019-01-06T01:22:23.117Z,99007.84
2019-01-06T01:22:54.316Z,98999.34
2019-01-06T01:23:25.518Z,99003.56
2019-01-06T01:23:56.666Z,99006.99
2019-01-06T01:24:27.817Z,99002.74
2019-01-06T01:24:58.977Z,98997.66
2019-01-06T01:25:30.121Z,98995.92
2019-01-06T01:26:01.275Z,98997.25
2019-01-06T01:26:32.429Z,98995.98
2019-01-06T01:27:03.581Z,99001.94
2019-01-06T01:27:34.788Z,98996.39
2019-01-06T01:28:05.942Z,98997.72
2019-01-06T01:28:37.091Z,98997.28
2019-01-06T01:29:11.943Z,98996.02
2019-01-06T01:29:44.883Z,98993.55
2019-01-06T01:30:16.191Z,98994.60
2019-01-06T01:30:47.751Z,98985.89
2019-01-06T01:31:20.620Z,98987.31
2019-01-06T01:31:51.751Z,98984.77
2019-01-06T01:32:24.075Z,98986.45
2019-01-06T01:32:58.872Z,98989.00
2019-01-06T01:33:32.621Z,98981.25
2019-01-06T01:34:04.651Z,98979.89
2019-01-06T01:34:38.322Z,98978.22
2019-01-06T01:35:11.754Z,98980.89
2019-01-06T01:35:43.367Z,98980.59
2019-01-06T01:36:14.549Z,98983.16
2019-01-06T01:36:47.003Z,98987.80
2019-01-06T01:37:18.178Z,98986.05
2019-01-06T01:37:49.330Z,98989.42
2019-01-06T01:38:20.508Z,98988.91
2019-01-06T01:38:51.665Z,98987.98
2019-01-06T01:39:22.913Z,98983.22
2019-01-06T01:39:54.106Z,98982.30
2019-01-06T01:40:25.219Z,98983.09
2019-01-06T01:40:56.373Z,98983.55
2019-01-06T01:41:27.573Z,98969.91
2019-01-06T01:41:58.734Z,98982.19
2019-01-06T01:42:29.900Z,98977.64
2019-01-06T01:43:01.069Z,98977.73
2019-01-06T01:43:32.222Z,98978.56
2019-01-06T01:44:03.381Z,98978.03
2019-01-06T01:44:34.531Z,98972.09
2019-01-06T01:45:05.727Z,98971.66
2019-01-06T01:45:36.884Z,98972.48
2019-01-06T01:46:08.077Z,98973.75
2019-01-06T01:46:39.241Z,98963.09
2019-01-06T01:47:10.388Z,98970.73
2019-01-06T01:47:41.550Z,98962.17
2019-01-06T01:48:12.708Z,98964.70
2019-01-06T01:48:43.856Z,98957.44
2019-01-06T01:49:15.011Z,98961.31
2019-01-06T01:49:46.174Z,98955.79
2019-01-06T01:50:17.332Z,98959.61
2019-01-06T01:50:48.564Z,98953.17
2019-01-06T01:51:19.747Z,98952.80
2019-01-06T01:51:50.905Z,98951.14
2019-01-06T01:52:22.053Z,98948.18
2019-01-06T01:52:53.267Z,98945.70
2019-01-06T01:53:24.418Z,98947.81
2019-01-06T01:53:55.611Z,98942.77
2019-01-06T01:54:26.756Z,98942.80
2019-01-06T01:54:57.917Z,98945.38
2019-01-06T01:55:29.070Z,98933.52
2019-01-06T01:56:00.227Z,98930.59
2019-01-06T01:56:31.378Z,98926.80
2019-01-06T01:57:02.532Z,98930.67
2019-01-06T01:57:33.693Z,98927.70
2019-01-06T01:58:04.852Z,98930.32
2019-01-06T01:58:36.083Z,98929.50
2019-01-06T01:59:07.279Z,98926.95
2019-01-06T01:59:38.436Z,98931.23
2019-01-06T02:00:09.586Z,98932.53
2019-01-06T02:00:40.736Z,98927.43
2019-01-06T02:01:11.944Z,98928.73
2019-01-06T02:01:43.099Z,98929.62
2019-01-06T02:02:14.265Z,98926.63
2019-01-06T02:02:45.436Z,98926.69
2019-01-06T02:03:16.594Z,98932.23
2019-01-06T02:03:47.752Z,98930.96
2019-01-06T02:04:18.930Z,98928.44
2019-01-06T02:04:50.058Z,98925.90
2019-01-06T02:05:21.243Z,98927.63
2019-01-06T02:05:52.395Z,98924.70
2019-01-06T02:06:23.591Z,98933.23
2019-01-06T02:06:54.748Z,98927.72
2019-01-06T02:07:25.923Z,98928.22
2019-01-06T02:07:57.121Z,98927.86
2019-01-06T02:08:28.285Z,98929.20
2019-01-06T02:08:59.443Z,98926.69
2019-01-06T02:09:30.613Z,98925.47
2019-01-06T02:10:01.807Z,98922.09
2019-01-06T02:10:33.017Z,98926.30
2019-01-06T02:11:04.245Z,98922.86
2019-01-06T02:11:35.404Z,98926.69
2019-01-06T02:12:06.554Z,98925.84
2019-01-06T02:12:37.725Z,98924.56
2019-01-06T02:13:08.877Z,98924.11
2019-01-06T02:13:40.047Z,98922.42
2019-01-06T02:14:11.208Z,98922.02
2019-01-06T02:14:42.369Z,98918.58
2019-01-06T02:15:13.613Z,98919.84
2019-01-06T02:15:44.772Z,98919.41
2019-01-06T02:16:15.962Z,98924.11
2019-01-06T02:16:47.131Z,98925.80
2019-01-06T02:17:18.288Z,98924.94
2019-01-06T02:17:49.486Z,98924.50
2019-01-06T02:18:20.733Z,98925.33
2019-01-06T02:18:51.905Z,98919.37
2019-01-06T02:19:23.064Z,98918.58
2019-01-06T02:19:54.225Z,98916.93
2019-01-06T02:20:25.375Z,98921.19
2019-01-06T02:20:56.562Z,98544.11
2019-01-06T02:21:27.712Z,98916.41
2019-01-06T02:21:58.874Z,98911.28
2019-01-06T02:22:30.023Z,98918.55
2019-01-06T02:23:01.235Z,98915.95
2019-01-06T02:23:32.389Z,98908.73
2019-01-06T02:24:03.602Z,98911.28
2019-01-06T02:24:34.774Z,98906.19
2019-01-06T02:25:05.943Z,98909.27
2019-01-06T02:25:37.107Z,98910.77
2019-01-06T02:26:08.271Z,98909.27
2019-01-06T02:26:39.430Z,98906.41
2019-01-06T02:27:10.603Z,98894.17
2019-01-06T02:27:41.756Z,98907.58
2019-01-06T02:28:12.921Z,98901.64
2019-01-06T02:28:44.177Z,98897.24
2019-01-06T02:29:15.337Z,98901.95
2019-01-06T02:29:46.489Z,98898.06
2019-01-06T02:30:17.654Z,98895.00
2019-01-06T02:30:48.802Z,98889.84
2019-01-06T02:31:19.958Z,98891.09
2019-01-06T02:31:51.112Z,98878.45
2019-01-06T02:32:22.323Z,98879.80
2019-01-06T02:32:53.476Z,98890.97
2019-01-06T02:33:24.636Z,98876.55
2019-01-06T02:33:55.832Z,98886.97
2019-01-06T02:34:26.986Z,98889.59
2019-01-06T02:34:58.147Z,98882.77
2019-01-06T02:35:29.305Z,98876.12
2019-01-06T02:36:00.465Z,98892.88
2019-01-06T02:36:31.636Z,98893.27
2019-01-06T02:37:02.851Z,98888.20
2019-01-06T02:37:34.011Z,98895.44
2019-01-06T02:38:05.176Z,98891.60
2019-01-06T02:38:36.317Z,98886.16
2019-01-06T02:39:07.494Z,98882.36
2019-01-06T02:39:38.646Z,98885.39
2019-01-06T02:40:09.808Z,98887.55
2019-01-06T02:40:40.965Z,98887.11
2019-01-06T02:41:12.118Z,98881.99
2019-01-06T02:41:43.316Z,98886.20
2019-01-06T02:42:14.461Z,98880.68
2019-01-06T02:42:45.615Z,98881.59
2019-01-06T02:43:16.774Z,98879.91
2019-01-06T02:43:47.936Z,98881.16
2019-01-06T02:44:19.110Z,98876.88
2019-01-06T02:44:50.260Z,98874.28
2019-01-06T02:45:21.414Z,98879.03
2019-01-06T02:45:52.562Z,98872.19
2019-01-06T02:46:23.715Z,98870.07
2019-01-06T02:46:54.878Z,98877.75
2019-01-06T02:47:26.026Z,98874.72
2019-01-06T02:47:57.173Z,98872.16
2019-01-06T02:48:28.341Z,98875.19
2019-01-06T02:48:59.502Z,98867.98
2019-01-06T02:49:30.666Z,98864.55
2019-01-06T02:50:01.818Z,98873.94
2019-01-06T02:50:33.013Z,98871.31
2019-01-06T02:51:04.184Z,98871.66
2019-01-06T02:51:35.333Z,98872.86
2019-01-06T02:52:06.542Z,98868.17
2019-01-06T02:52:37.697Z,98872.05
2019-01-06T02:53:08.867Z,98871.17
2019-01-06T02:53:40.027Z,98872.94
2019-01-06T02:54:11.193Z,98870.41
2019-01-06T02:54:42.342Z,98866.58
2019-01-06T02:55:13.540Z,98867.52
2019-01-06T02:55:44.711Z,98866.23
2019-01-06T02:56:18.698Z,98855.56
2019-01-06T02:56:49.849Z,98864.95
2019-01-06T02:57:21.038Z,98863.20
2019-01-06T02:57:52.241Z,98861.05
2019-01-06T02:58:23.397Z,98861.05
2019-01-06T02:58:54.571Z,98856.73
2019-01-06T02:59:27.468Z,98855.02
2019-01-06T02:59:58.623Z,98855.97
2019-01-06T03:00:29.781Z,98851.31
2019-01-06T03:01:00.989Z,98854.39
2019-01-06T03:01:32.171Z,98853.56
2019-01-06T03:02:03.327Z,98850.16
2019-01-06T03:02:34.481Z,98850.16
2019-01-06T03:03:05.686Z,98851.86
2019-01-06T03:03:36.870Z,98848.83
2019-01-06T03:04:08.087Z,98844.97
2019-01-06T03:04:39.264Z,98844.97
2019-01-06T03:05:10.417Z,98852.23
2019-01-06T03:05:41.573Z,98851.80
2019-01-06T03:06:12.725Z,98846.69
2019-01-06T03:06:43.891Z,98847.09
2019-01-06T03:07:15.047Z,98850.06
2019-01-06T03:07:46.194Z,98848.31
2019-01-06T03:08:17.426Z,98851.34
2019-01-06T03:08:48.627Z,98844.94
2019-01-06T03:09:19.764Z,98845.78
2019-01-06T03:09:50.912Z,98844.07
2019-01-06T03:10:22.055Z,98846.62
2019-01-06T03:10:53.210Z,98840.23
2019-01-06T03:11:24.363Z,98841.08
2019-01-06T03:11:55.578Z,98844.53
2019-01-06T03:12:26.680Z,98841.13
2019-01-06T03:12:57.894Z,98845.88
2019-01-06T03:13:29.060Z,98845.88
2019-01-06T03:14:00.218Z,98851.41
2019-01-06T03:14:31.372Z,98850.52
2019-01-06T03:15:02.546Z,98838.55
2019-01-06T03:15:33.679Z,98850.06
2019-01-06T03:16:04.837Z,98846.20
2019-01-06T03:16:35.996Z,98849.53
2019-01-06T03:17:07.179Z,98851.55
2019-01-06T03:17:38.347Z,98851.55
2019-01-06T03:18:09.490Z,98848.59
2019-01-06T03:18:40.648Z,98851.52
2019-01-06T03:19:11.821Z,98838.17
2019-01-06T03:19:42.985Z,98848.78
2019-01-06T03:20:14.186Z,98844.47
2019-01-06T03:20:45.336Z,98841.02
2019-01-06T03:21:16.510Z,98850.41
2019-01-06T03:21:47.720Z,98847.46
2019-01-06T03:22:18.875Z,98844.52
2019-01-06T03:22:50.036Z,98848.48
2019-01-06T03:23:21.184Z,98842.56
2019-01-06T03:23:52.323Z,98846.44
2019-01-06T03:24:23.494Z,98846.84
2019-01-06T03:24:54.684Z,98844.72
2019-01-06T03:25:25.860Z,98847.64
2019-01-06T03:25:57.021Z,98841.25
2019-01-06T03:26:28.178Z,98842.13
2019-01-06T03:26:59.392Z,98843.00
2019-01-06T03:27:30.556Z,98845.48
2019-01-06T03:28:01.716Z,98845.36
2019-01-06T03:28:32.886Z,98846.09
2019-01-06T03:29:04.049Z,98844.76
2019-01-06T03:29:35.209Z,98845.05
2019-01-06T03:30:06.446Z,98845.38
2019-01-06T03:30:37.556Z,98847.92
2019-01-06T03:31:08.716Z,98846.61
2019-01-06T03:31:39.877Z,98843.59
2019-01-06T03:32:11.359Z,98840.15
2019-01-06T03:32:42.532Z,98838.05
2019-01-06T03:33:13.683Z,98839.16
2019-01-06T03:33:44.847Z,98838.91
2019-01-06T03:34:16.017Z,98837.37
2019-01-06T03:34:47.184Z,98841.36
2019-01-06T03:35:18.335Z,98844.39
2019-01-06T03:35:49.535Z,98839.30
2019-01-06T03:36:20.686Z,98835.11
2019-01-06T03:36:51.853Z,98836.55
2019-01-06T03:37:23.005Z,98836.55
2019-01-06T03:37:54.160Z,98845.51
2019-01-06T03:38:25.319Z,98833.96
2019-01-06T03:38:56.524Z,98843.83
2019-01-06T03:39:27.755Z,98844.69
2019-01-06T03:39:58.886Z,98848.54
2019-01-06T03:40:30.040Z,98844.66
2019-01-06T03:41:01.189Z,98844.63
2019-01-06T03:41:32.332Z,98844.60
2019-01-06T03:42:03.480Z,98851.83
2019-01-06T03:42:34.630Z,98851.83
2019-01-06T03:43:05.822Z,98849.27
2019-01-06T03:43:36.982Z,98847.55
2019-01-06T03:44:08.136Z,98845.84
2019-01-06T03:44:39.292Z,98846.22
2019-01-06T03:45:10.489Z,98847.97
2019-01-06T03:45:41.605Z,98848.88
2019-01-06T03:46:12.772Z,98847.60
2019-01-06T03:46:43.905Z,98848.03
2019-01-06T03:47:15.055Z,98854.00
2019-01-06T03:47:46.207Z,98856.59
2019-01-06T03:48:17.424Z,98841.63
2019-01-06T03:48:48.576Z,98852.75
2019-01-06T03:49:19.739Z,98853.56
2019-01-06T03:49:50.891Z,98854.41
2019-01-06T03:50:22.046Z,98856.52
2019-01-06T03:50:53.195Z,98849.24
2019-01-06T03:51:24.349Z,98852.21
2019-01-06T03:51:55.508Z,98857.34
2019-01-06T03:52:26.661Z,98851.34
2019-01-06T03:52:57.825Z,98851.34
2019-01-06T03:53:28.974Z,98850.06
2019-01-06T03:54:00.127Z,98854.31
2019-01-06T03:54:31.335Z,98840.61
2019-01-06T03:55:02.489Z,98844.48
2019-01-06T03:55:33.643Z,98845.29
2019-01-06T03:56:04.836Z,98852.53
2019-01-06T03:56:35.984Z,98848.69
2019-01-06T03:57:07.170Z,98855.50
2019-01-06T03:57:38.327Z,98858.49
2019-01-06T03:58:09.499Z,98854.22
2019-01-06T03:58:40.699Z,98853.38
2019-01-06T03:59:11.867Z,98850.81
2019-01-06T03:59:43.021Z,98852.50
2019-01-06T04:00:14.182Z,98854.58
2019-01-06T04:00:45.345Z,98854.58
2019-01-06T04:01:16.509Z,98848.19
2019-01-06T04:01:47.710Z,98848.19
2019-01-06T04:02:18.876Z,98849.87
2019-01-06T04:02:50.037Z,98848.59
2019-01-06T04:03:21.211Z,98848.55
2019-01-06T04:03:52.369Z,98848.12
2019-01-06T04:04:23.526Z,98847.27
2019-01-06T04:04:54.685Z,98846.77
2019-01-06T04:05:25.860Z,98848.03
2019-01-06T04:05:57.011Z,98843.72
2019-01-06T04:06:28.207Z,98848.83
2019-01-06T04:06:59.424Z,98840.28
2019-01-06T04:07:31.612Z,98846.27
2019-01-06T04:08:02.719Z,98851.79
2019-01-06T04:08:33.930Z,98847.52
2019-01-06T04:09:05.048Z,98851.34
2019-01-06T04:09:36.218Z,98848.78
2019-01-06T04:10:07.368Z,98851.74
2019-01-06T04:10:38.526Z,98858.14
2019-01-06T04:11:15.115Z,98860.69
2019-01-06T04:11:42.649Z,98851.78
2019-01-06T04:12:13.798Z,98852.63
2019-01-06T04:12:44.993Z,98850.11
2019-01-06T04:13:16.166Z,98857.34
2019-01-06T04:13:47.329Z,98851.39
2019-01-06T04:14:18.485Z,98855.70
2019-01-06T04:14:49.653Z,98850.59
2019-01-06T04:15:20.814Z,98852.31
2019-01-06T04:15:51.976Z,98857.87
2019-01-06T04:16:23.169Z,98858.31
2019-01-06T04:16:54.327Z,98855.34
2019-01-06T04:17:25.492Z,98855.34
2019-01-06T04:17:56.651Z,98859.19
2019-01-06T04:18:27.804Z,98855.78
2019-01-06T04:18:58.947Z,98858.34
2019-01-06T04:19:30.198Z,98857.91
2019-01-06T04:20:01.350Z,98854.06
2019-01-06T04:20:32.503Z,98848.95
2019-01-06T04:21:03.729Z,98859.63
2019-01-06T04:21:36.859Z,98857.07
2019-01-06T04:22:07.986Z,98853.27
2019-01-06T04:22:39.164Z,98855.86
2019-01-06T04:23:10.305Z,98856.30
2019-01-06T04:23:41.459Z,98866.61
2019-01-06T04:24:12.626Z,98866.61
2019-01-06T04:24:43.772Z,98855.97
2019-01-06T04:25:14.943Z,98856.47
2019-01-06T04:25:46.095Z,98851.34
2019-01-06T04:26:17.133Z,98854.75
2019-01-06T04:26:53.937Z,98851.78
2019-01-06T04:27:25.920Z,98853.50
2019-01-06T04:27:57.546Z,98850.44
2019-01-06T04:28:39.597Z,98849.60
2019-01-06T04:29:13.706Z,98847.48
2019-01-06T04:29:44.717Z,98847.48
2019-01-06T04:30:18.212Z,98845.79
2019-01-06T04:30:49.442Z,98847.06
2019-01-06T04:31:20.972Z,98846.22
2019-01-06T04:32:45.499Z,98845.38
2019-01-06T04:33:16.735Z,98849.22
2019-01-06T04:33:49.939Z,98845.78
2019-01-06T04:34:22.847Z,98841.92
2019-01-06T04:34:54.376Z,98841.95
2019-01-06T04:35:25.507Z,98841.95
2019-01-06T04:35:58.810Z,98842.36
2019-01-06T04:36:30.028Z,98840.64
2019-01-06T04:37:01.767Z,98843.64
2019-01-06T04:37:32.993Z,98843.64
2019-01-06T04:38:04.848Z,98844.05
2019-01-06T04:38:36.082Z,98838.90
2019-01-06T04:39:07.632Z,98838.90
2019-01-06T04:39:39.382Z,98842.33
2019-01-06T04:40:13.417Z,98839.77
2019-01-06T04:40:45.650Z,98838.90
2019-01-06T04:41:17.878Z,98843.58
2019-01-06T04:41:49.034Z,98844.86
2019-01-06T04:42:20.209Z,98839.77
2019-01-06T04:42:51.364Z,98837.61
2019-01-06T04:43:22.585Z,98833.78
2019-01-06T04:43:53.751Z,98835.09
2019-01-06T04:44:24.909Z,98834.68
2019-01-06T04:44:56.124Z,98839.80
2019-01-06T04:45:27.272Z,98835.11
2019-01-06T04:45:58.426Z,98845.76
2019-01-06T04:46:29.573Z,98839.80
2019-01-06T04:47:00.729Z,98845.81
2019-01-06T04:47:31.882Z,98845.81
2019-01-06T04:48:03.030Z,98843.69
2019-01-06T04:48:34.170Z,98849.24
2019-01-06T04:49:05.308Z,98843.31
2019-01-06T04:49:36.481Z,98843.33
2019-01-06T04:50:07.676Z,98833.55
2019-01-06T04:50:38.835Z,98842.88
2019-01-06T04:51:09.975Z,98842.88
2019-01-06T04:51:41.127Z,98838.18
2019-01-06T04:52:12.268Z,98838.59
2019-01-06T04:52:43.448Z,98836.03
2019-01-06T04:53:14.607Z,98828.77
2019-01-06T04:53:45.766Z,98835.16
2019-01-06T04:54:16.919Z,98838.56
2019-01-06T04:54:48.075Z,98833.86
2019-01-06T04:55:19.284Z,98833.42
2019-01-06T04:55:50.433Z,98832.15
2019-01-06T04:56:21.581Z,98826.16
2019-01-06T04:56:52.731Z,98823.19
2019-01-06T04:57:23.927Z,98827.03
2019-01-06T04:57:55.078Z,98830.44
2019-01-06T04:58:26.238Z,98828.28
2019-01-06T04:58:57.401Z,98826.98
2019-01-06T04:59:28.545Z,98830.41
2019-01-06T04:59:59.731Z,98828.72
2019-01-06T05:00:30.917Z,98831.28
2019-01-06T05:01:02.065Z,98832.98
2019-01-06T05:01:33.211Z,98832.15
2019-01-06T05:02:04.363Z,98832.98
2019-01-06T05:02:35.497Z,98830.45
2019-01-06T05:03:06.640Z,98834.70
2019-01-06T05:03:37.787Z,98833.45
2019-01-06T05:04:08.951Z,98831.77
2019-01-06T05:04:40.114Z,98831.77
2019-01-06T05:05:11.320Z,98835.16
2019-01-06T05:05:42.467Z,98827.92
2019-01-06T05:06:13.630Z,98828.76
2019-01-06T05:06:44.826Z,98834.75
2019-01-06T05:07:15.974Z,98827.52
2019-01-06T05:07:47.131Z,98838.19
2019-01-06T05:08:18.304Z,98826.69
2019-01-06T05:08:49.428Z,98826.69
2019-01-06T05:09:20.587Z,98833.52
2019-01-06T05:09:51.785Z,98830.52
2019-01-06T05:10:22.936Z,98831.39
2019-01-06T05:10:54.131Z,98828.42
2019-01-06T05:11:25.270Z,98829.69
2019-01-06T05:11:56.426Z,98820.32
2019-01-06T05:12:27.572Z,98828.45
2019-01-06T05:12:58.713Z,98826.31
2019-01-06T05:13:29.868Z,98825.45
2019-01-06T05:14:01.041Z,98821.63
2019-01-06T05:14:32.240Z,98821.63
2019-01-06T05:15:03.383Z,98831.05
2019-01-06T05:15:34.529Z,98826.34
2019-01-06T05:16:05.669Z,98831.50
2019-01-06T05:16:36.809Z,98832.34
2019-01-06T05:17:07.959Z,98829.36
2019-01-06T05:17:39.159Z,98821.25
2019-01-06T05:18:10.316Z,98832.34
2019-01-06T05:18:41.473Z,98829.80
2019-01-06T05:19:12.612Z,98832.80
2019-01-06T05:19:43.812Z,98834.50
2019-01-06T05:20:14.954Z,98825.53
2019-01-06T05:20:46.099Z,98823.82
2019-01-06T05:21:17.238Z,98830.64
2019-01-06T05:21:48.398Z,98827.22
2019-01-06T05:22:19.727Z,98820.80
2019-01-06T05:22:50.877Z,98831.92
2019-01-06T05:23:22.029Z,98826.36
2019-01-06T05:23:53.171Z,98829.80
2019-01-06T05:24:24.357Z,98828.94
2019-01-06T05:24:55.506Z,98827.63
2019-01-06T05:25:26.679Z,98825.49
2019-01-06T05:25:57.820Z,98828.07
2019-01-06T05:26:28.964Z,98825.94
2019-01-06T05:27:00.114Z,98824.66
2019-01-06T05:27:31.259Z,98828.95
2019-01-06T05:28:02.443Z,98834.06
2019-01-06T05:28:33.587Z,98827.23
2019-01-06T05:29:04.801Z,98830.23
2019-01-06T05:29:35.961Z,98827.66
2019-01-06T05:30:07.159Z,98827.24
2019-01-06T05:30:38.296Z,98828.50
2019-01-06T05:31:09.434Z,98822.52
2019-01-06T05:31:40.638Z,98822.95
2019-01-06T05:32:11.771Z,98825.09
2019-01-06T05:32:42.907Z,98825.52
2019-01-06T05:33:14.078Z,98828.94
2019-01-06T05:33:45.269Z,98823.38
2019-01-06T05:34:16.409Z,98822.95
2019-01-06T05:34:47.617Z,98819.53
2019-01-06T05:35:18.724Z,98820.81
2019-01-06T05:35:49.964Z,98822.96
2019-01-06T05:36:21.091Z,98824.24
2019-01-06T05:36:52.253Z,98821.25
2019-01-06T05:37:23.408Z,98820.37
2019-01-06T05:37:54.552Z,98819.97
2019-01-06T05:38:25.697Z,98824.22
2019-01-06T05:38:56.838Z,98824.64
2019-01-06T05:39:27.988Z,98831.05
2019-01-06T05:39:59.133Z,98825.50
2019-01-06T05:40:30.340Z,98825.92
2019-01-06T05:41:01.498Z,98823.36
2019-01-06T05:41:32.639Z,98822.95
2019-01-06T05:42:03.789Z,98825.08
2019-01-06T05:42:34.933Z,98825.93
2019-01-06T05:43:06.084Z,98823.38
2019-01-06T05:43:37.302Z,98820.80
2019-01-06T05:44:08.455Z,98822.09
2019-01-06T05:44:39.602Z,98822.09
2019-01-06T05:45:10.741Z,98817.39
2019-01-06T05:45:41.893Z,98824.67
2019-01-06T05:46:13.075Z,98825.92
2019-01-06T05:46:44.219Z,98829.78
2019-01-06T05:47:15.358Z,98829.78
2019-01-06T05:47:46.516Z,98828.50
2019-01-06T05:48:17.676Z,98828.50
2019-01-06T05:48:48.860Z,98832.79
2019-01-06T05:49:20.043Z,98824.67
2019-01-06T05:49:51.191Z,98826.38
2019-01-06T05:50:22.374Z,98828.09
2019-01-06T05:50:53.498Z,98829.78
2019-01-06T05:51:24.645Z,98827.64
2019-01-06T05:51:55.788Z,98831.47
2019-01-06T05:52:26.941Z,98821.64
2019-01-06T05:52:58.430Z,98827.22
2019-01-06T05:53:29.594Z,98820.36
2019-01-06T05:54:00.827Z,98825.92
2019-01-06T05:54:32.027Z,98820.37
2019-01-06T05:55:04.283Z,98826.78
2019-01-06T05:55:36.563Z,98826.78
2019-01-06T05:56:07.754Z,98825.06
2019-01-06T05:56:39.302Z,98825.06
2019-01-06T05:57:11.467Z,98821.65
2019-01-06T05:57:42.628Z,98828.89
2019-01-06T05:58:17.401Z,98827.64
2019-01-06T05:58:48.494Z,98825.08
2019-01-06T05:59:19.701Z,98754.55
2019-01-06T05:59:53.472Z,98832.34
2019-01-06T06:00:24.990Z,98824.66
2019-01-06T06:00:58.187Z,98832.77
2019-01-06T06:01:31.346Z,98833.62
2019-01-06T06:02:02.597Z,98833.62
2019-01-06T06:02:33.776Z,98834.03
2019-01-06T06:03:05.895Z,98839.58
2019-01-06T06:03:38.553Z,98838.32
2019-01-06T06:04:20.325Z,98833.19
2019-01-06T06:04:51.515Z,98843.87
2019-01-06T06:05:25.034Z,98840.90
2019-01-06T06:05:56.196Z,98841.75
2019-01-06T06:06:27.819Z,98844.74
2019-01-06T06:06:58.971Z,98842.58
2019-01-06T06:07:31.194Z,98848.59
2019-01-06T06:08:02.191Z,98848.59
2019-01-06T06:08:33.431Z,98850.30
2019-01-06T06:09:07.922Z,98849.42